Time;durP1;ratioP1;P1;durP2;ratioP2;P2;SDS_P1;SDS_P2;PMS_P1;PMS_P2;Temp;Humidity;BMP_temperature;BMP_pressure;BME280_temperature;BME280_humidity;BME280_pressure;Samples;Min_cycle;Max_cycle;Signal;HPM_P1;HPM_P2
2023/04/10 00:00:56;;;;;;;;;10.25;10.25;;;;;16.09;44.40;101339.84;2088263;28;46229;-62
2023/04/10 00:01:56;;;;;;;;;12.60;12.60;;;;;16.09;44.62;101342.50;2088574;28;46594;-62
2023/04/10 00:03:00;;;;;;;;;9.25;9.25;;;;;16.10;44.33;101333.53;2079001;28;47092;-62
2023/04/10 00:04:02;;;;;;;;;9.40;9.40;;;;;16.10;44.24;101340.72;2083940;28;46556;-62
2023/04/10 00:05:02;;;;;;;;;13.20;12.00;;;;;16.09;44.36;101336.28;2096388;28;46969;-60
2023/04/10 00:06:03;;;;;;;;;11.75;10.75;;;;;16.09;44.81;101338.97;2096823;28;46452;-61
2023/04/10 00:07:03;;;;;;;;;11.50;10.50;;;;;16.08;44.65;101331.84;2096490;28;46649;-61
2023/04/10 00:08:04;;;;;;;;;12.00;12.00;;;;;16.07;44.67;101332.78;2096959;28;46402;-62
2023/04/10 00:09:04;;;;;;;;;13.00;12.25;;;;;16.07;44.27;101332.78;2097224;28;45741;-61
2023/04/10 00:10:04;;;;;;;;;12.75;11.00;;;;;16.06;44.79;101334.59;2096747;28;46371;-62
2023/04/10 00:11:05;;;;;;;;;12.75;11.00;;;;;16.06;44.50;101334.59;2096486;28;46172;-62
2023/04/10 00:12:05;;;;;;;;;12.25;10.75;;;;;16.07;44.81;101333.66;2096912;28;46871;-61
2023/04/10 00:13:06;;;;;;;;;11.50;11.50;;;;;16.06;44.48;101329.22;2096368;28;46446;-61
2023/04/10 00:14:06;;;;;;;;;12.25;12.25;;;;;16.06;44.84;101325.69;2085302;28;46295;-61
2023/04/10 00:15:07;;;;;;;;;13.25;12.50;;;;;16.05;44.37;101326.63;2086527;28;46879;-61
2023/04/10 00:16:07;;;;;;;;;12.20;11.00;;;;;16.05;44.83;101329.28;2096668;28;46271;-60
2023/04/10 00:17:08;;;;;;;;;12.00;12.00;;;;;16.05;44.82;101326.63;2096413;28;46887;-61
2023/04/10 00:18:08;;;;;;;;;10.00;10.00;;;;;16.05;44.84;101324.81;2096650;28;46408;-61
2023/04/10 00:19:08;;;;;;;;;11.75;11.00;;;;;16.04;44.88;101320.38;2096308;28;46698;-61
2023/04/10 00:20:09;;;;;;;;;13.00;11.50;;;;;16.04;44.53;101327.53;2096339;28;46404;-61
2023/04/10 00:21:10;;;;;;;;;9.80;9.80;;;;;16.03;44.42;101323.13;2086721;28;46503;-60
2023/04/10 00:22:10;;;;;;;;;11.75;10.75;;;;;16.02;44.29;101322.25;2087389;28;45571;-62
2023/04/10 00:23:11;;;;;;;;;13.00;13.00;;;;;16.01;44.38;101323.19;2104619;28;46577;-60
2023/04/10 00:24:12;;;;;;;;;12.00;10.75;;;;;16.02;44.26;101324.06;2099705;28;45875;-61
2023/04/10 00:25:12;;;;;;;;;11.80;11.80;;;;;16.00;44.20;101321.41;2095981;28;46677;-61
2023/04/10 00:26:12;;;;;;;;;12.50;11.50;;;;;16.01;44.28;101322.31;2095823;28;45274;-61
2023/04/10 00:27:13;;;;;;;;;15.50;13.75;;;;;16.00;44.37;101318.72;2096473;28;46596;-60
2023/04/10 00:28:14;;;;;;;;;21.75;21.75;;;;;15.99;44.67;101314.31;2086677;28;46343;-63
2023/04/10 00:29:14;;;;;;;;;15.20;13.80;;;;;16.00;44.72;101307.13;2079529;28;46221;-61
2023/04/10 00:30:15;;;;;;;;;9.00;9.00;;;;;16.00;44.61;101318.72;2096215;28;46523;-61
2023/04/10 00:31:15;;;;;;;;;13.00;11.75;;;;;16.00;44.24;101321.41;2096593;28;46297;-61
2023/04/10 00:32:15;;;;;;;;;8.00;7.25;;;;;15.98;44.30;101319.72;2096834;28;46073;-61
2023/04/10 00:33:16;;;;;;;;;13.50;11.75;;;;;15.97;44.65;101318.84;2096560;28;46202;-62
2023/04/10 00:34:16;;;;;;;;;13.25;11.50;;;;;15.97;44.49;101312.59;2096441;28;46848;-60
2023/04/10 00:35:16;;;;;;;;;13.00;12.50;;;;;15.97;44.80;101316.16;2096521;28;46672;-61
2023/04/10 00:36:17;;;;;;;;;14.25;13.75;;;;;15.97;44.30;101316.16;2096037;28;46283;-60
2023/04/10 00:37:17;;;;;;;;;13.75;13.75;;;;;15.98;44.74;101311.69;2096725;28;46619;-60
2023/04/10 00:38:18;;;;;;;;;9.50;9.50;;;;;15.97;44.51;101312.59;2095773;28;46275;-61
2023/04/10 00:39:18;;;;;;;;;14.75;13.00;;;;;15.99;44.92;101310.75;2096695;28;46560;-61
2023/04/10 00:40:19;;;;;;;;;12.25;12.25;;;;;15.98;44.83;101309.88;2090503;28;46663;-60
2023/04/10 00:41:19;;;;;;;;;12.50;11.75;;;;;15.97;44.72;101300.09;2088656;28;46591;-61
2023/04/10 00:42:19;;;;;;;;;13.50;13.50;;;;;15.95;44.59;101301.97;2090865;28;46476;-61
2023/04/10 00:43:20;;;;;;;;;13.25;13.25;;;;;15.94;44.91;101296.66;2088064;28;46240;-61
2023/04/10 00:44:21;;;;;;;;;9.80;9.20;;;;;15.92;44.45;101299.41;2087559;28;47015;-61
2023/04/10 00:45:21;;;;;;;;;13.50;13.50;;;;;15.92;44.94;101290.50;2079767;28;46524;-60
2023/04/10 00:46:23;;;;;;;;;12.50;12.00;;;;;15.90;45.03;101293.22;2083513;28;46417;-61
2023/04/10 00:47:24;;;;;;;;;15.00;13.20;;;;;15.88;45.02;101290.59;2088010;28;46410;-61
2023/04/10 00:48:25;;;;;;;;;14.00;11.20;;;;;15.87;44.85;101290.63;2087837;28;46462;-60
2023/04/10 00:49:25;;;;;;;;;14.00;14.00;;;;;15.86;45.03;101288.88;2088239;28;46217;-62
2023/04/10 00:50:26;;;;;;;;;12.00;11.50;;;;;15.84;45.15;101288.94;2088055;28;45556;-61
2023/04/10 00:51:26;;;;;;;;;11.25;10.00;;;;;15.84;44.71;101286.25;2084031;28;45813;-61
2023/04/10 00:52:27;;;;;;;;;10.25;10.25;;;;;15.84;44.76;101283.59;2079789;28;46412;-62
2023/04/10 00:53:28;;;;;;;;;12.75;12.75;;;;;15.84;44.62;101285.38;2079544;28;46860;-62
2023/04/10 00:54:30;;;;;;;;;13.40;13.40;;;;;15.84;44.86;101280.91;2079556;28;46366;-61
2023/04/10 00:55:30;;;;;;;;;11.80;11.80;;;;;15.84;44.79;101282.72;2079969;28;46969;-61
2023/04/10 00:56:31;;;;;;;;;12.00;10.75;;;;;15.83;44.74;101272.94;2078854;28;46317;-60
2023/04/10 00:57:32;;;;;;;;;9.50;9.50;;;;;15.82;44.65;101277.41;2080032;28;47772;-59
2023/04/10 00:58:32;;;;;;;;;13.20;13.20;;;;;15.81;45.08;101273.00;2088016;28;46876;-61
2023/04/10 00:59:34;;;;;;;;;12.00;10.00;;;;;15.82;45.08;101273.88;2088111;28;45640;-61
2023/04/10 01:00:34;;;;;;;;;12.40;12.40;;;;;15.80;45.20;101276.59;2088129;28;45087;-60
2023/04/10 01:01:34;;;;;;;;;11.25;11.25;;;;;15.79;45.24;101272.19;2087920;28;46914;-61
2023/04/10 01:02:35;;;;;;;;;11.25;11.25;;;;;15.79;45.03;101271.31;2087497;28;45613;-61
2023/04/10 01:03:37;;;;;;;;;13.50;13.00;;;;;15.77;44.81;101271.34;2088547;28;46048;-62
2023/04/10 01:04:38;;;;;;;;;12.40;11.00;;;;;15.77;45.32;101268.69;2089727;28;46760;-62
2023/04/10 01:06:01;;;;;;;;;15.00;11.80;;;;;15.76;44.76;101271.41;2086580;28;46326;-62
2023/04/10 01:07:26;;;;;;;;;14.20;14.20;;;;;15.76;44.94;101268.75;2079659;28;45908;-61
2023/04/10 01:08:56;;;;;;;;;12.00;12.00;;;;;15.74;44.86;101263.41;2087905;28;46846;-61
2023/04/10 01:10:06;;;;;;;;;13.60;13.00;;;;;15.72;44.91;101270.63;2087494;28;46405;-62
2023/04/10 01:11:16;;;;;;;;;14.20;13.60;;;;;15.70;45.15;101267.13;2087569;28;46837;-62
2023/04/10 01:12:28;;;;;;;;;10.60;10.60;;;;;15.68;45.14;101265.44;2087887;28;46907;-60
2023/04/10 01:13:57;;;;;;;;;13.80;12.20;;;;;15.67;44.97;101271.72;2085073;28;46945;-61
2023/04/10 01:15:18;;;;;;;;;13.40;12.80;;;;;15.66;45.24;101269.97;2091970;28;45152;-60
2023/04/10 01:16:27;;;;;;;;;9.60;9.60;;;;;15.65;44.98;101262.88;2077348;28;46751;-61
2023/04/10 01:17:39;;;;;;;;;15.80;14.60;;;;;15.65;44.98;101262.88;2087333;28;45161;-61
2023/04/10 01:18:43;;;;;;;;;13.40;11.60;;;;;15.64;44.95;101261.13;2087832;28;46097;-62
2023/04/10 01:20:11;;;;;;;;;13.40;13.40;;;;;15.63;45.01;101254.91;2087878;28;46400;-62
2023/04/10 01:21:15;;;;;;;;;12.20;12.20;;;;;15.63;45.22;101254.03;2088204;28;46938;-61
2023/04/10 01:22:16;;;;;;;;;13.80;13.60;;;;;15.62;44.94;101257.59;2089679;28;46765;-61
2023/04/10 01:23:41;;;;;;;;;12.20;11.60;;;;;15.60;45.20;101253.19;2079385;28;46311;-61
2023/04/10 01:24:56;;;;;;;;;11.20;11.00;;;;;15.60;45.22;101255.84;2081377;28;46330;-61
2023/04/10 01:26:02;;;;;;;;;18.00;16.80;;;;;15.59;44.96;101254.13;2087829;28;46356;-61
2023/04/10 01:27:16;;;;;;;;;14.00;14.00;;;;;15.60;45.43;101254.97;2087611;28;46767;-61
2023/04/10 01:28:52;;;;;;;;;13.00;12.20;;;;;15.60;45.04;101255.84;2087862;28;46782;-60
2023/04/10 01:29:56;;;;;;;;;13.20;13.20;;;;;15.62;45.03;101254.94;2087257;28;46490;-62
2023/04/10 01:31:00;;;;;;;;;11.80;11.80;;;;;15.62;45.53;101249.56;2087778;28;46371;-61
2023/04/10 01:32:10;;;;;;;;;12.40;12.40;;;;;15.62;45.05;101253.13;2087420;28;46540;-60
2023/04/10 01:33:15;;;;;;;;;15.20;15.00;;;;;15.63;45.02;101254.03;2088031;28;46719;-61
2023/04/10 01:34:22;;;;;;;;;9.80;9.80;;;;;15.63;45.30;101254.03;2088572;28;48281;-61
2023/04/10 01:35:24;;;;;;;;;13.80;12.20;;;;;15.64;45.28;101250.44;2087957;28;46896;-61
2023/04/10 01:36:30;;;;;;;;;12.80;11.80;;;;;15.65;45.46;101244.16;2095114;28;45974;-61
2023/04/10 01:37:36;;;;;;;;;10.20;9.80;;;;;15.66;44.88;101253.91;2092870;28;46647;-62
2023/04/10 01:38:41;;;;;;;;;13.40;12.80;;;;;15.67;45.08;101253.00;2095795;28;46839;-60
2023/04/10 01:39:42;;;;;;;;;12.40;11.60;;;;;15.68;45.18;101249.38;2094264;28;47025;-61
2023/04/10 01:40:48;;;;;;;;;12.40;12.20;;;;;15.69;45.37;101248.47;2086972;28;46512;-60
2023/04/10 01:41:55;;;;;;;;;13.60;13.60;;;;;15.69;44.96;101246.66;2087650;28;46766;-61
2023/04/10 01:42:57;;;;;;;;;10.20;10.20;;;;;15.69;45.30;101251.13;2087789;28;46671;-62
2023/04/10 01:43:59;;;;;;;;;11.60;11.20;;;;;15.69;44.88;101243.09;2087930;28;46840;-61
2023/04/10 01:45:02;;;;;;;;;11.40;11.40;;;;;15.69;45.08;101253.81;2086600;28;46649;-60
2023/04/10 01:46:03;;;;;;;;;13.40;11.80;;;;;15.69;44.83;101249.34;2086924;28;46290;-60
2023/04/10 01:47:06;;;;;;;;;14.00;12.00;;;;;15.69;44.92;101246.66;2088242;28;46925;-62
2023/04/10 01:48:06;;;;;;;;;12.40;12.00;;;;;15.69;44.96;101248.47;2095307;28;46416;-62
2023/04/10 01:49:08;;;;;;;;;14.75;14.50;;;;;15.70;44.91;101250.19;2087338;28;45943;-62
2023/04/10 01:50:10;;;;;;;;;13.00;11.40;;;;;15.69;45.16;101251.13;2087124;28;46688;-60
2023/04/10 01:51:12;;;;;;;;;12.40;12.40;;;;;15.68;45.02;101244.03;2084535;28;46500;-62
2023/04/10 01:52:14;;;;;;;;;9.40;9.40;;;;;15.68;45.37;101241.34;2079027;28;46341;-61
2023/04/10 01:53:15;;;;;;;;;12.00;12.00;;;;;15.67;45.05;101236.94;2079740;28;45485;-61
2023/04/10 01:54:16;;;;;;;;;10.20;10.20;;;;;15.67;45.19;101243.16;2079086;28;46616;-61
2023/04/10 01:55:18;;;;;;;;;10.50;10.50;;;;;15.68;45.34;101242.22;2079624;28;46175;-62
2023/04/10 01:56:19;;;;;;;;;12.00;12.00;;;;;15.69;45.51;101235.94;2084140;28;46513;-63
2023/04/10 01:57:20;;;;;;;;;11.50;11.00;;;;;15.70;45.60;101239.50;2087875;28;46074;-62
2023/04/10 01:58:20;;;;;;;;;13.00;12.50;;;;;15.69;45.10;101235.94;2087219;28;46946;-61
2023/04/10 01:59:21;;;;;;;;;15.50;15.50;;;;;15.70;45.35;101240.38;2087708;28;46477;-62
2023/04/10 02:00:21;;;;;;;;;9.00;9.00;;;;;15.71;45.44;101238.56;2087346;28;46297;-61
2023/04/10 02:01:22;;;;;;;;;15.25;15.25;;;;;15.70;45.44;101234.16;2087710;28;45411;-60
2023/04/10 02:02:22;;;;;;;;;12.50;12.50;;;;;15.69;45.53;101241.31;2087339;28;46585;-62
2023/04/10 02:03:23;;;;;;;;;10.50;10.50;;;;;15.68;45.06;101236.00;2087606;28;46331;-61
2023/04/10 02:04:25;;;;;;;;;14.00;12.00;;;;;15.69;45.36;101237.75;2087522;28;46446;-62
2023/04/10 02:05:33;;;;;;;;;13.40;12.00;;;;;15.69;45.48;101232.41;2088199;28;46832;-61
2023/04/10 02:06:43;;;;;;;;;13.00;13.00;;;;;15.68;45.74;101236.00;2079719;28;46221;-62
2023/04/10 02:07:54;;;;;;;;;11.20;11.20;;;;;15.67;45.32;101232.47;2084298;28;46432;-61
2023/04/10 02:09:03;;;;;;;;;18.60;15.40;;;;;15.67;45.75;101228.91;2087711;28;46287;-60
2023/04/10 02:10:23;;;;;;;;;11.40;11.20;;;;;15.68;45.47;101225.31;2086036;28;46425;-62
2023/04/10 02:11:37;;;;;;;;;14.00;12.20;;;;;15.67;45.36;101232.47;2087609;28;47042;-61
2023/04/10 02:12:52;;;;;;;;;13.80;13.80;;;;;15.67;45.12;101226.22;2087519;28;46833;-61
2023/04/10 02:13:55;;;;;;;;;14.00;14.00;;;;;15.66;45.43;101225.38;2088452;28;46965;-62
2023/04/10 02:15:00;;;;;;;;;13.60;13.60;;;;;15.67;45.41;101226.22;2087660;28;46599;-61
2023/04/10 02:16:05;;;;;;;;;15.60;15.60;;;;;15.65;45.28;101228.09;2087299;28;46844;-61
2023/04/10 02:17:10;;;;;;;;;10.80;10.20;;;;;15.64;45.49;101221.88;2086712;28;46338;-61
2023/04/10 02:18:13;;;;;;;;;13.40;12.20;;;;;15.63;45.53;101217.44;2087029;28;46821;-61
2023/04/10 02:19:16;;;;;;;;;14.00;13.00;;;;;15.62;45.62;101221.03;2087164;28;46489;-62
2023/04/10 02:20:17;;;;;;;;;15.40;14.60;;;;;15.63;45.74;101225.47;2087145;28;45537;-61
2023/04/10 02:21:18;;;;;;;;;15.25;13.50;;;;;15.63;45.88;101217.44;2087090;28;46281;-62
2023/04/10 02:22:19;;;;;;;;;12.50;12.50;;;;;15.64;45.53;101218.31;2081349;28;46812;-62
2023/04/10 02:23:19;;;;;;;;;12.60;12.60;;;;;15.64;45.73;101218.31;2078663;28;47123;-61
2023/04/10 02:24:21;;;;;;;;;12.75;11.25;;;;;15.63;45.97;101214.78;2086256;28;46264;-61
2023/04/10 02:25:21;;;;;;;;;14.20;14.20;;;;;15.62;45.76;101213.00;2080594;28;46728;-61
2023/04/10 02:26:21;;;;;;;;;12.00;10.75;;;;;15.63;45.89;101219.25;2077719;28;46344;-62
2023/04/10 02:27:35;;;;;;;;;13.25;11.25;;;;;15.63;45.62;101219.25;2086159;28;46333;-62
2023/04/10 02:28:39;;;;;;;;;11.40;10.20;;;;;15.60;45.92;101210.38;2087207;28;46915;-61
2023/04/10 02:29:39;;;;;;;;;16.20;14.80;;;;;15.58;45.44;101204.19;2087309;28;46078;-62
2023/04/10 02:30:39;;;;;;;;;16.00;14.75;;;;;15.58;45.55;101219.34;2087486;28;46258;-61
2023/04/10 02:31:40;;;;;;;;;13.00;13.00;;;;;15.55;45.81;101208.78;2087658;28;45742;-61
2023/04/10 02:32:41;;;;;;;;;14.50;13.00;;;;;15.54;45.74;101213.25;2087482;28;45114;-60
2023/04/10 02:33:41;;;;;;;;;13.50;13.25;;;;;15.54;45.90;101215.03;2091339;28;46574;-60
2023/04/10 02:34:42;;;;;;;;;13.25;12.50;;;;;15.52;45.69;101211.56;2095622;28;46207;-61
2023/04/10 02:35:42;;;;;;;;;14.00;13.40;;;;;15.52;45.76;101206.22;2087601;28;46690;-62
2023/04/10 02:36:43;;;;;;;;;13.75;13.00;;;;;15.50;45.70;101206.25;2087863;28;46787;-60
2023/04/10 02:37:45;;;;;;;;;10.25;10.25;;;;;15.50;45.71;101203.59;2087402;28;46658;-61
2023/04/10 02:38:45;;;;;;;;;16.40;13.80;;;;;15.48;46.02;101197.38;2093400;28;46330;-61
2023/04/10 02:39:46;;;;;;;;;11.00;11.00;;;;;15.48;45.62;101194.72;2095078;28;46842;-59
2023/04/10 02:40:46;;;;;;;;;14.50;12.50;;;;;15.48;46.01;101201.88;2086657;28;46708;-61
2023/04/10 02:41:46;;;;;;;;;12.00;11.50;;;;;15.46;45.83;101191.22;2090844;28;45310;-60
2023/04/10 02:42:47;;;;;;;;;14.00;12.00;;;;;15.45;46.26;101196.63;2087510;28;46505;-61
2023/04/10 02:43:47;;;;;;;;;14.00;14.00;;;;;15.45;46.02;101197.50;2093394;28;46104;-59
2023/04/10 02:44:47;;;;;;;;;11.00;11.00;;;;;15.44;45.79;101195.75;2091859;28;46548;-61
2023/04/10 02:45:48;;;;;;;;;11.25;11.25;;;;;15.44;45.75;101203.78;2087323;28;46693;-61
2023/04/10 02:46:48;;;;;;;;;13.50;11.00;;;;;15.42;45.81;101194.94;2087125;28;46823;-60
2023/04/10 02:47:48;;;;;;;;;13.00;12.75;;;;;15.41;46.10;101195.00;2087317;28;46336;-62
2023/04/10 02:48:51;;;;;;;;;15.75;12.50;;;;;15.40;46.21;101185.22;2086857;28;46219;-61
2023/04/10 02:49:51;;;;;;;;;13.20;12.00;;;;;15.38;46.25;101190.63;2087415;28;46944;-62
2023/04/10 02:50:56;;;;;;;;;13.75;13.75;;;;;15.38;45.83;101193.31;2087136;28;46589;-61
2023/04/10 02:51:56;;;;;;;;;13.60;11.20;;;;;15.37;46.35;101191.53;2087373;28;46517;-60
2023/04/10 02:52:57;;;;;;;;;12.00;11.00;;;;;15.37;46.05;101190.66;2089982;28;46719;-61
2023/04/10 02:53:57;;;;;;;;;13.00;13.00;;;;;15.37;46.01;101193.31;2094739;28;46179;-60
2023/04/10 02:54:57;;;;;;;;;11.75;11.25;;;;;15.36;46.26;101194.25;2095118;28;46637;-61
2023/04/10 02:55:58;;;;;;;;;12.25;12.25;;;;;15.35;46.38;101192.50;2093388;28;46217;-60
2023/04/10 02:56:59;;;;;;;;;14.25;14.25;;;;;15.33;46.52;101189.91;2087241;28;46339;-62
2023/04/10 02:57:59;;;;;;;;;14.25;14.25;;;;;15.31;46.14;101189.06;2091757;28;46841;-61
2023/04/10 02:59:00;;;;;;;;;13.25;12.00;;;;;15.31;46.38;101189.94;2095281;28;46662;-61
2023/04/10 03:00:01;;;;;;;;;16.40;15.00;;;;;15.30;46.41;101190.00;2095251;28;46691;-61
2023/04/10 03:01:02;;;;;;;;;15.80;14.60;;;;;15.28;46.76;101181.16;2090914;28;46453;-60
2023/04/10 03:02:02;;;;;;;;;12.00;9.25;;;;;15.25;46.27;101186.63;2087234;28;46449;-61
2023/04/10 03:03:02;;;;;;;;;16.00;14.50;;;;;15.22;46.53;101179.56;2087553;28;45601;-62
2023/04/10 03:04:03;;;;;;;;;14.00;12.00;;;;;15.21;46.21;101176.94;2087642;28;46292;-62
2023/04/10 03:05:03;;;;;;;;;14.50;14.50;;;;;15.20;46.54;101180.53;2086963;28;46600;-61
2023/04/10 03:06:04;;;;;;;;;15.50;14.75;;;;;15.20;46.66;101177.88;2087113;28;46499;-62
2023/04/10 03:07:05;;;;;;;;;16.80;15.80;;;;;15.20;46.96;101185.88;2085546;28;46459;-63
2023/04/10 03:08:05;;;;;;;;;10.50;10.50;;;;;15.19;46.98;101173.44;2086307;28;46841;-62
2023/04/10 03:09:06;;;;;;;;;14.25;13.25;;;;;15.18;46.92;101177.91;2090973;28;46427;-63
2023/04/10 03:10:07;;;;;;;;;15.50;13.75;;;;;15.18;46.32;101180.59;2096440;28;45062;-62
2023/04/10 03:11:08;;;;;;;;;12.80;12.80;;;;;15.18;46.28;101177.03;2090509;28;46642;-61
2023/04/10 03:12:08;;;;;;;;;12.20;12.20;;;;;15.17;46.47;101180.66;2088410;28;46927;-61
2023/04/10 03:13:08;;;;;;;;;11.25;10.50;;;;;15.16;46.38;101178.91;2087861;28;46614;-62
2023/04/10 03:14:09;;;;;;;;;16.25;14.50;;;;;15.15;46.88;101179.81;2087464;28;46597;-61
2023/04/10 03:15:09;;;;;;;;;12.25;12.25;;;;;15.14;46.34;101188.78;2088888;28;46307;-60
2023/04/10 03:16:10;;;;;;;;;15.00;14.25;;;;;15.13;46.60;101187.91;2092126;28;46284;-59
2023/04/10 03:17:11;;;;;;;;;10.50;10.50;;;;;15.13;46.86;101182.56;2090029;28;46413;-61
2023/04/10 03:18:11;;;;;;;;;13.00;12.20;;;;;15.13;46.85;101182.56;2090920;28;46245;-61
2023/04/10 03:19:11;;;;;;;;;13.75;13.00;;;;;15.14;46.36;101178.09;2088091;28;45609;-60
2023/04/10 03:20:12;;;;;;;;;14.50;12.25;;;;;15.13;46.63;101171.00;2088845;28;46716;-61
2023/04/10 03:21:12;;;;;;;;;0.00;0.00;;;;;15.11;46.65;101170.13;2088317;28;46655;-62
2023/04/10 03:22:12;;;;;;;;;12.25;12.25;;;;;15.11;46.36;101172.81;2089009;28;46313;-61
2023/04/10 03:23:13;;;;;;;;;12.00;11.75;;;;;15.10;46.44;101171.06;2089591;28;46266;-62
2023/04/10 03:24:13;;;;;;;;;12.25;11.75;;;;;15.09;46.50;101167.53;2079933;28;46141;-62
2023/04/10 03:25:13;;;;;;;;;15.00;15.00;;;;;15.10;46.39;101160.38;2088044;28;46367;-61
2023/04/10 03:26:14;;;;;;;;;15.25;14.50;;;;;15.10;46.61;101160.38;2084229;28;46341;-60
2023/04/10 03:27:16;;;;;;;;;14.75;13.75;;;;;15.08;46.91;101155.09;2078518;28;47378;-61
2023/04/10 03:28:16;;;;;;;;;10.80;9.00;;;;;15.08;46.71;101159.56;2078894;28;47050;-61
2023/04/10 03:29:17;;;;;;;;;14.50;14.50;;;;;15.06;46.60;101154.25;2088481;28;46916;-61
2023/04/10 03:30:18;;;;;;;;;12.00;11.40;;;;;15.06;47.08;101161.41;2088570;28;45750;-63
2023/04/10 03:31:19;;;;;;;;;10.75;10.75;;;;;15.05;46.98;101160.53;2087946;28;45848;-61
2023/04/10 03:32:19;;;;;;;;;15.60;15.60;;;;;15.05;46.71;101159.66;2079803;28;46188;-62
2023/04/10 03:33:20;;;;;;;;;13.50;13.50;;;;;15.04;47.00;101166.81;2087664;28;46443;-61
2023/04/10 03:34:20;;;;;;;;;15.50;14.75;;;;;15.05;47.01;101157.00;2088231;28;46177;-60
2023/04/10 03:35:21;;;;;;;;;18.50;16.00;;;;;15.02;47.24;101155.31;2079284;28;46519;-61
2023/04/10 03:36:21;;;;;;;;;15.00;14.50;;;;;15.02;46.71;101164.19;2087928;28;46227;-60
2023/04/10 03:37:21;;;;;;;;;14.50;13.50;;;;;15.02;46.96;101160.66;2088590;28;46905;-62
2023/04/10 03:38:22;;;;;;;;;11.50;11.50;;;;;15.02;46.86;101160.66;2088164;28;46697;-63
2023/04/10 03:39:23;;;;;;;;;13.25;13.25;;;;;15.00;46.86;101158.03;2088356;28;46810;-61
2023/04/10 03:40:23;;;;;;;;;13.20;12.20;;;;;14.99;46.70;101153.59;2088399;28;46421;-62
2023/04/10 03:41:24;;;;;;;;;15.00;13.75;;;;;14.99;46.96;101153.59;2090605;28;46504;-61
2023/04/10 03:42:25;;;;;;;;;11.50;11.50;;;;;14.96;47.02;101156.34;2088236;28;46404;-61
2023/04/10 03:43:25;;;;;;;;;14.25;14.25;;;;;14.96;46.67;101153.69;2095413;28;47104;-62
2023/04/10 03:44:26;;;;;;;;;12.50;12.50;;;;;14.95;46.97;101162.63;2095503;28;46796;-62
2023/04/10 03:45:26;;;;;;;;;13.75;12.75;;;;;14.95;47.25;101153.75;2094820;28;46365;-62
2023/04/10 03:46:26;;;;;;;;;16.75;15.75;;;;;14.92;47.19;101149.38;2096721;28;46242;-61
2023/04/10 03:47:27;;;;;;;;;12.50;12.50;;;;;14.91;47.33;101158.31;2096617;28;46025;-62
2023/04/10 03:48:29;;;;;;;;;12.00;12.00;;;;;14.91;47.02;101157.44;2096835;28;46399;-61
2023/04/10 03:49:29;;;;;;;;;13.20;11.20;;;;;14.90;46.88;101161.06;2087526;28;46477;-61
2023/04/10 03:50:30;;;;;;;;;13.50;12.50;;;;;14.89;47.00;101157.50;2087745;28;46340;-62
2023/04/10 03:51:30;;;;;;;;;13.25;13.25;;;;;14.88;47.12;101149.53;2096056;28;46404;-61
2023/04/10 03:52:30;;;;;;;;;10.50;10.50;;;;;14.88;47.36;101155.75;2095868;28;46428;-62
2023/04/10 03:53:34;;;;;;;;;13.25;13.25;;;;;14.87;47.07;101155.81;2096593;28;46352;-60
2023/04/10 03:54:35;;;;;;;;;12.00;12.00;;;;;14.85;47.05;101146.94;2096770;28;46272;-61
2023/04/10 03:55:37;;;;;;;;;13.25;12.50;;;;;14.85;47.09;101144.28;2096519;28;46167;-61
2023/04/10 03:56:37;;;;;;;;;14.40;13.60;;;;;14.85;47.31;101136.25;2096639;28;46359;-62
2023/04/10 03:57:37;;;;;;;;;11.00;11.00;;;;;14.85;47.25;101141.59;2097415;28;46206;-63
2023/04/10 03:58:38;;;;;;;;;15.50;13.50;;;;;14.84;46.92;101135.38;2089344;28;46024;-61
2023/04/10 03:59:38;;;;;;;;;13.00;11.75;;;;;14.84;47.00;101132.72;2090635;28;46119;-61
2023/04/10 04:00:39;;;;;;;;;14.00;13.75;;;;;14.82;47.37;101142.56;2096995;28;46227;-62
2023/04/10 04:01:39;;;;;;;;;16.00;14.00;;;;;14.82;47.14;101136.34;2092645;28;46836;-62
2023/04/10 04:02:40;;;;;;;;;12.75;12.75;;;;;14.81;47.25;101131.94;2088384;28;46291;-62
2023/04/10 04:03:40;;;;;;;;;13.25;12.50;;;;;14.80;47.23;101140.88;2088333;28;46657;-61
2023/04/10 04:04:41;;;;;;;;;13.50;12.75;;;;;14.78;47.17;101138.25;2088313;28;46096;-61
2023/04/10 04:05:41;;;;;;;;;11.00;11.00;;;;;14.77;47.65;101143.66;2088728;28;46967;-61
2023/04/10 04:06:41;;;;;;;;;12.75;11.75;;;;;14.75;47.19;101135.69;2094037;28;45946;-61
2023/04/10 04:07:42;;;;;;;;;10.50;10.50;;;;;14.73;47.33;101135.72;2096659;28;46576;-61
2023/04/10 04:08:42;;;;;;;;;12.50;12.50;;;;;14.71;47.15;101128.69;2096401;28;46574;-60
2023/04/10 04:09:42;;;;;;;;;13.50;13.50;;;;;14.72;47.57;101130.44;2092850;28;46341;-62
2023/04/10 04:10:43;;;;;;;;;13.75;12.50;;;;;14.72;47.59;101130.44;2088235;28;46275;-61
2023/04/10 04:11:43;;;;;;;;;10.50;10.50;;;;;14.70;47.22;101127.81;2088122;28;46244;-61
2023/04/10 04:12:43;;;;;;;;;12.00;12.00;;;;;14.71;47.61;101128.69;2093577;28;46329;-61
2023/04/10 04:13:44;;;;;;;;;12.00;12.00;;;;;14.70;47.57;101125.16;2099353;28;46356;-61
2023/04/10 04:14:44;;;;;;;;;10.25;10.25;;;;;14.71;47.42;101126.00;2100417;28;46738;-60
2023/04/10 04:15:46;;;;;;;;;11.75;11.75;;;;;14.71;47.41;101128.69;2096220;28;46377;-61
2023/04/10 04:16:47;;;;;;;;;10.00;10.00;;;;;14.70;47.39;101135.81;2096131;28;46770;-62
2023/04/10 04:17:47;;;;;;;;;14.50;12.00;;;;;14.68;47.32;101132.34;2096535;28;46773;-61
2023/04/10 04:18:47;;;;;;;;;13.00;12.00;;;;;14.67;47.68;101130.59;2097281;28;46282;-61
2023/04/10 04:19:48;;;;;;;;;11.50;11.50;;;;;14.65;47.59;101137.78;2096482;28;46353;-60
2023/04/10 04:20:48;;;;;;;;;12.00;12.00;;;;;14.65;47.22;101136.91;2096279;28;46867;-61
2023/04/10 04:21:48;;;;;;;;;9.75;8.00;;;;;14.63;47.49;101136.09;2094938;28;46676;-61
2023/04/10 04:22:49;;;;;;;;;11.75;11.50;;;;;14.62;47.68;101137.00;2099689;28;45974;-61
2023/04/10 04:23:49;;;;;;;;;12.50;12.00;;;;;14.61;47.55;101137.91;2097182;28;47994;-63
2023/04/10 04:24:49;;;;;;;;;10.50;9.75;;;;;14.61;47.80;101143.25;2096507;28;46189;-61
2023/04/10 04:25:51;;;;;;;;;10.75;10.75;;;;;14.60;47.91;101144.19;2091334;28;45074;-64
2023/04/10 04:26:52;;;;;;;;;10.80;10.80;;;;;14.60;47.91;101141.50;2096912;28;46823;-64
2023/04/10 04:27:52;;;;;;;;;11.75;11.75;;;;;14.58;47.89;101143.34;2095181;28;45945;-61
2023/04/10 04:28:52;;;;;;;;;12.50;12.50;;;;;14.57;47.66;101150.50;2095526;28;46183;-61
2023/04/10 04:29:53;;;;;;;;;11.25;9.75;;;;;14.56;47.55;101146.09;2088686;28;45860;-63
2023/04/10 04:30:53;;;;;;;;;13.00;12.50;;;;;14.54;47.79;101155.06;2088636;28;45701;-62
2023/04/10 04:31:53;;;;;;;;;12.75;12.75;;;;;14.53;47.89;101151.53;2088369;28;46458;-63
2023/04/10 04:32:54;;;;;;;;;12.25;10.00;;;;;14.52;47.73;101144.44;2088296;28;46087;-61
2023/04/10 04:33:54;;;;;;;;;11.00;11.00;;;;;14.53;47.80;101147.97;2090825;28;46208;-60
2023/04/10 04:34:54;;;;;;;;;8.75;8.75;;;;;14.52;48.06;101149.78;2096345;28;46246;-61
2023/04/10 04:35:55;;;;;;;;;13.25;12.75;;;;;14.53;47.86;101139.97;2091468;28;46512;-62
2023/04/10 04:36:56;;;;;;;;;13.60;13.20;;;;;14.52;48.11;101149.78;2079390;28;46695;-63
2023/04/10 04:37:56;;;;;;;;;13.50;12.00;;;;;14.53;47.98;101154.19;2079744;28;45557;-62
2023/04/10 04:38:56;;;;;;;;;11.50;11.50;;;;;14.53;47.86;101150.66;2088001;28;46292;-63
2023/04/10 04:39:57;;;;;;;;;17.25;14.25;;;;;14.53;47.80;101142.63;2087938;28;46655;-61
2023/04/10 04:40:57;;;;;;;;;12.50;12.50;;;;;14.52;48.25;101151.56;2088066;28;46795;-61
2023/04/10 04:41:57;;;;;;;;;12.50;10.50;;;;;14.51;48.14;101147.16;2090253;28;46260;-61
2023/04/10 04:42:58;;;;;;;;;13.00;12.50;;;;;14.49;48.17;101144.53;2096306;28;46579;-61
2023/04/10 04:44:01;;;;;;;;;11.50;11.50;;;;;14.50;48.03;101151.63;2096523;28;46602;-61